Terminal Aerodrome Forecast
Issued by NWS

Home | Current Version | Previous Version | Text Only | Print | Product List | Glossary On
Versions: 1 2 3 4 5 6 7 8 9 10 11 12 13 14 15 16 17 18 19 20 21 22 23 24
000
FTUS41 KBGM 291700
TAFITH
TAF
KITH 291739Z 2918/3018 VRB05KT P6SM SCT250
     FM300200 17010KT P6SM OVC120
     FM300600 18012KT 3SM -SHSN OVC022
     FM301000 21012G18KT P6SM -SHSNRA OVC015
     FM301500 27015G25KT P6SM OVC025=

USA.gov is the U.S. government's official web portal to all federal, state and local government web resources and services.